sensor_id;sensor_type;location;lat;lon;timestamp;P1;durP1;ratioP1;P2;durP2;ratioP2
70549;SDS011;58101;48.658;2.328;2023-04-24T00:00:16;9.35;;;2.50;;
70549;SDS011;58101;48.658;2.328;2023-04-24T00:02:42;6.93;;;2.33;;
70549;SDS011;58101;48.658;2.328;2023-04-24T00:05:12;10.52;;;2.30;;
70549;SDS011;58101;48.658;2.328;2023-04-24T00:07:42;8.93;;;2.58;;
70549;SDS011;58101;48.658;2.328;2023-04-24T00:10:12;9.05;;;2.30;;
70549;SDS011;58101;48.658;2.328;2023-04-24T00:12:40;8.25;;;2.42;;
70549;SDS011;58101;48.658;2.328;2023-04-24T00:15:10;6.95;;;1.98;;
70549;SDS011;58101;48.658;2.328;2023-04-24T00:17:36;6.43;;;2.00;;
70549;SDS011;58101;48.658;2.328;2023-04-24T00:20:02;7.30;;;2.15;;
70549;SDS011;58101;48.658;2.328;2023-04-24T00:22:29;11.07;;;2.38;;
70549;SDS011;58101;48.658;2.328;2023-04-24T00:24:56;11.18;;;2.42;;
70549;SDS011;58101;48.658;2.328;2023-04-24T00:27:22;10.82;;;2.45;;
70549;SDS011;58101;48.658;2.328;2023-04-24T00:29:47;8.75;;;2.20;;
70549;SDS011;58101;48.658;2.328;2023-04-24T00:32:13;9.05;;;2.30;;
70549;SDS011;58101;48.658;2.328;2023-04-24T00:34:39;9.32;;;2.00;;
70549;SDS011;58101;48.658;2.328;2023-04-24T00:37:05;7.43;;;2.30;;
70549;SDS011;58101;48.658;2.328;2023-04-24T00:39:31;9.00;;;2.40;;
70549;SDS011;58101;48.658;2.328;2023-04-24T00:41:57;9.18;;;2.35;;
70549;SDS011;58101;48.658;2.328;2023-04-24T00:44:23;6.18;;;2.40;;
70549;SDS011;58101;48.658;2.328;2023-04-24T00:46:49;9.05;;;2.70;;
70549;SDS011;58101;48.658;2.328;2023-04-24T00:49:19;7.60;;;2.28;;
70549;SDS011;58101;48.658;2.328;2023-04-24T00:51:45;9.93;;;2.53;;
70549;SDS011;58101;48.658;2.328;2023-04-24T00:54:15;10.15;;;2.90;;
70549;SDS011;58101;48.658;2.328;2023-04-24T00:56:41;6.70;;;2.13;;
70549;SDS011;58101;48.658;2.328;2023-04-24T00:59:07;9.00;;;2.55;;
70549;SDS011;58101;48.658;2.328;2023-04-24T01:01:33;11.82;;;2.50;;
70549;SDS011;58101;48.658;2.328;2023-04-24T01:03:59;12.60;;;2.50;;
70549;SDS011;58101;48.658;2.328;2023-04-24T01:06:29;7.95;;;2.30;;
70549;SDS011;58101;48.658;2.328;2023-04-24T01:08:58;8.30;;;2.40;;
70549;SDS011;58101;48.658;2.328;2023-04-24T01:11:25;7.95;;;2.10;;
70549;SDS011;58101;48.658;2.328;2023-04-24T01:13:51;8.75;;;2.42;;
70549;SDS011;58101;48.658;2.328;2023-04-24T01:16:17;7.40;;;2.15;;
70549;SDS011;58101;48.658;2.328;2023-04-24T01:18:45;8.10;;;2.10;;
70549;SDS011;58101;48.658;2.328;2023-04-24T01:21:12;8.02;;;2.35;;
70549;SDS011;58101;48.658;2.328;2023-04-24T01:23:41;10.18;;;2.80;;
70549;SDS011;58101;48.658;2.328;2023-04-24T01:26:10;9.00;;;2.33;;
70549;SDS011;58101;48.658;2.328;2023-04-24T01:28:36;11.40;;;2.40;;
70549;SDS011;58101;48.658;2.328;2023-04-24T01:31:02;7.57;;;2.20;;
70549;SDS011;58101;48.658;2.328;2023-04-24T01:33:28;10.05;;;2.50;;
70549;SDS011;58101;48.658;2.328;2023-04-24T01:35:54;7.13;;;2.22;;
70549;SDS011;58101;48.658;2.328;2023-04-24T01:38:19;10.93;;;2.55;;
70549;SDS011;58101;48.658;2.328;2023-04-24T01:40:46;10.88;;;2.50;;
70549;SDS011;58101;48.658;2.328;2023-04-24T01:43:12;7.68;;;2.22;;
70549;SDS011;58101;48.658;2.328;2023-04-24T01:45:38;8.98;;;2.40;;
70549;SDS011;58101;48.658;2.328;2023-04-24T01:48:04;8.77;;;2.42;;
70549;SDS011;58101;48.658;2.328;2023-04-24T01:50:30;10.15;;;2.35;;
70549;SDS011;58101;48.658;2.328;2023-04-24T01:52:56;10.50;;;2.30;;
70549;SDS011;58101;48.658;2.328;2023-04-24T01:55:22;6.03;;;2.13;;
70549;SDS011;58101;48.658;2.328;2023-04-24T01:57:47;8.05;;;2.50;;
70549;SDS011;58101;48.658;2.328;2023-04-24T02:00:14;8.05;;;2.42;;
70549;SDS011;58101;48.658;2.328;2023-04-24T02:02:40;10.77;;;2.15;;
70549;SDS011;58101;48.658;2.328;2023-04-24T02:05:07;9.00;;;2.33;;
70549;SDS011;58101;48.658;2.328;2023-04-24T02:07:33;10.45;;;2.40;;
70549;SDS011;58101;48.658;2.328;2023-04-24T02:09:58;11.85;;;2.60;;
70549;SDS011;58101;48.658;2.328;2023-04-24T02:12:24;8.30;;;2.60;;
70549;SDS011;58101;48.658;2.328;2023-04-24T02:14:50;7.50;;;2.40;;
70549;SDS011;58101;48.658;2.328;2023-04-24T02:17:15;8.02;;;2.20;;
70549;SDS011;58101;48.658;2.328;2023-04-24T02:19:41;8.80;;;2.17;;
70549;SDS011;58101;48.658;2.328;2023-04-24T02:22:07;9.43;;;2.22;;
70549;SDS011;58101;48.658;2.328;2023-04-24T02:24:33;8.85;;;2.22;;
70549;SDS011;58101;48.658;2.328;2023-04-24T02:26:59;7.45;;;2.42;;
70549;SDS011;58101;48.658;2.328;2023-04-24T02:29:25;8.57;;;2.20;;
70549;SDS011;58101;48.658;2.328;2023-04-24T02:31:50;11.57;;;2.05;;
70549;SDS011;58101;48.658;2.328;2023-04-24T02:34:16;10.68;;;2.70;;
70549;SDS011;58101;48.658;2.328;2023-04-24T02:36:41;6.70;;;2.42;;
70549;SDS011;58101;48.658;2.328;2023-04-24T02:39:07;10.02;;;2.25;;
70549;SDS011;58101;48.658;2.328;2023-04-24T02:41:33;7.68;;;2.33;;
70549;SDS011;58101;48.658;2.328;2023-04-24T02:43:58;7.50;;;2.30;;
70549;SDS011;58101;48.658;2.328;2023-04-24T02:46:24;8.00;;;1.98;;
70549;SDS011;58101;48.658;2.328;2023-04-24T02:48:50;7.38;;;2.20;;
70549;SDS011;58101;48.658;2.328;2023-04-24T02:51:16;12.25;;;2.28;;
70549;SDS011;58101;48.658;2.328;2023-04-24T02:53:41;9.10;;;2.00;;
70549;SDS011;58101;48.658;2.328;2023-04-24T02:56:07;8.82;;;2.08;;
70549;SDS011;58101;48.658;2.328;2023-04-24T02:58:33;7.63;;;1.80;;
70549;SDS011;58101;48.658;2.328;2023-04-24T03:00:58;10.50;;;2.28;;
70549;SDS011;58101;48.658;2.328;2023-04-24T03:03:25;8.38;;;2.05;;
70549;SDS011;58101;48.658;2.328;2023-04-24T03:05:51;8.50;;;2.13;;
70549;SDS011;58101;48.658;2.328;2023-04-24T03:08:16;8.05;;;2.03;;
70549;SDS011;58101;48.658;2.328;2023-04-24T03:10:42;10.75;;;2.20;;
70549;SDS011;58101;48.658;2.328;2023-04-24T03:13:08;10.38;;;2.40;;
70549;SDS011;58101;48.658;2.328;2023-04-24T03:15:33;5.30;;;2.05;;
70549;SDS011;58101;48.658;2.328;2023-04-24T03:17:59;10.30;;;2.30;;
70549;SDS011;58101;48.658;2.328;2023-04-24T03:20:25;13.63;;;2.25;;
70549;SDS011;58101;48.658;2.328;2023-04-24T03:22:51;7.82;;;2.38;;
70549;SDS011;58101;48.658;2.328;2023-04-24T03:25:17;9.50;;;2.40;;
70549;SDS011;58101;48.658;2.328;2023-04-24T03:27:42;11.13;;;2.20;;
70549;SDS011;58101;48.658;2.328;2023-04-24T03:30:08;7.90;;;2.20;;
70549;SDS011;58101;48.658;2.328;2023-04-24T03:32:37;10.07;;;2.30;;
70549;SDS011;58101;48.658;2.328;2023-04-24T03:35:04;9.20;;;2.08;;
70549;SDS011;58101;48.658;2.328;2023-04-24T03:37:32;9.25;;;2.60;;
70549;SDS011;58101;48.658;2.328;2023-04-24T03:39:57;12.55;;;2.58;;
70549;SDS011;58101;48.658;2.328;2023-04-24T03:42:23;10.15;;;2.60;;
70549;SDS011;58101;48.658;2.328;2023-04-24T03:44:48;8.82;;;2.47;;
70549;SDS011;58101;48.658;2.328;2023-04-24T03:47:14;10.75;;;2.60;;
70549;SDS011;58101;48.658;2.328;2023-04-24T03:49:40;8.45;;;2.22;;
70549;SDS011;58101;48.658;2.328;2023-04-24T03:52:05;15.88;;;2.50;;
70549;SDS011;58101;48.658;2.328;2023-04-24T03:54:31;12.13;;;2.63;;
70549;SDS011;58101;48.658;2.328;2023-04-24T03:56:56;10.27;;;2.63;;
70549;SDS011;58101;48.658;2.328;2023-04-24T03:59:22;8.35;;;2.78;;
70549;SDS011;58101;48.658;2.328;2023-04-24T04:01:48;9.77;;;2.50;;
70549;SDS011;58101;48.658;2.328;2023-04-24T04:04:13;10.35;;;2.72;;
70549;SDS011;58101;48.658;2.328;2023-04-24T04:06:39;8.98;;;2.50;;
70549;SDS011;58101;48.658;2.328;2023-04-24T04:09:05;9.05;;;2.35;;
70549;SDS011;58101;48.658;2.328;2023-04-24T04:11:30;10.02;;;2.63;;
70549;SDS011;58101;48.658;2.328;2023-04-24T04:13:56;8.68;;;2.25;;
70549;SDS011;58101;48.658;2.328;2023-04-24T04:16:22;8.18;;;2.63;;
70549;SDS011;58101;48.658;2.328;2023-04-24T04:18:48;13.25;;;2.78;;
70549;SDS011;58101;48.658;2.328;2023-04-24T04:21:13;12.35;;;2.92;;
70549;SDS011;58101;48.658;2.328;2023-04-24T04:23:39;12.35;;;3.15;;
70549;SDS011;58101;48.658;2.328;2023-04-24T04:26:05;10.77;;;2.78;;
70549;SDS011;58101;48.658;2.328;2023-04-24T04:28:30;10.40;;;2.90;;
70549;SDS011;58101;48.658;2.328;2023-04-24T04:30:56;8.35;;;2.42;;
70549;SDS011;58101;48.658;2.328;2023-04-24T04:33:23;9.68;;;2.67;;
70549;SDS011;58101;48.658;2.328;2023-04-24T04:35:49;11.52;;;2.90;;
70549;SDS011;58101;48.658;2.328;2023-04-24T04:38:17;11.32;;;2.80;;
70549;SDS011;58101;48.658;2.328;2023-04-24T04:40:43;12.10;;;3.13;;
70549;SDS011;58101;48.658;2.328;2023-04-24T04:43:10;17.10;;;2.83;;
70549;SDS011;58101;48.658;2.328;2023-04-24T04:45:36;12.77;;;2.80;;
70549;SDS011;58101;48.658;2.328;2023-04-24T04:48:03;9.85;;;2.70;;
70549;SDS011;58101;48.658;2.328;2023-04-24T04:50:32;11.48;;;3.20;;
70549;SDS011;58101;48.658;2.328;2023-04-24T04:52:58;13.57;;;3.00;;
70549;SDS011;58101;48.658;2.328;2023-04-24T04:55:24;7.72;;;2.83;;
70549;SDS011;58101;48.658;2.328;2023-04-24T04:57:56;10.00;;;3.13;;
70549;SDS011;58101;48.658;2.328;2023-04-24T05:00:25;12.23;;;3.10;;
70549;SDS011;58101;48.658;2.328;2023-04-24T05:02:51;10.43;;;2.88;;
70549;SDS011;58101;48.658;2.328;2023-04-24T05:05:17;8.68;;;2.58;;
70549;SDS011;58101;48.658;2.328;2023-04-24T05:07:43;10.80;;;2.83;;
70549;SDS011;58101;48.658;2.328;2023-04-24T05:10:12;8.48;;;3.00;;
70549;SDS011;58101;48.658;2.328;2023-04-24T05:12:38;10.35;;;2.95;;
70549;SDS011;58101;48.658;2.328;2023-04-24T05:15:03;10.25;;;2.80;;
70549;SDS011;58101;48.658;2.328;2023-04-24T05:17:29;15.98;;;3.08;;
70549;SDS011;58101;48.658;2.328;2023-04-24T05:19:55;11.70;;;3.40;;
70549;SDS011;58101;48.658;2.328;2023-04-24T05:22:20;11.25;;;2.90;;
70549;SDS011;58101;48.658;2.328;2023-04-24T05:24:46;9.35;;;3.00;;
70549;SDS011;58101;48.658;2.328;2023-04-24T05:27:12;9.60;;;2.80;;
70549;SDS011;58101;48.658;2.328;2023-04-24T05:29:38;8.05;;;2.63;;
70549;SDS011;58101;48.658;2.328;2023-04-24T05:32:07;11.45;;;3.00;;
70549;SDS011;58101;48.658;2.328;2023-04-24T05:34:33;9.88;;;3.17;;
70549;SDS011;58101;48.658;2.328;2023-04-24T05:36:58;10.75;;;2.70;;
70549;SDS011;58101;48.658;2.328;2023-04-24T05:39:24;12.50;;;3.13;;
70549;SDS011;58101;48.658;2.328;2023-04-24T05:41:51;11.13;;;3.10;;
70549;SDS011;58101;48.658;2.328;2023-04-24T05:44:17;11.52;;;3.03;;
70549;SDS011;58101;48.658;2.328;2023-04-24T05:46:42;10.23;;;3.10;;
70549;SDS011;58101;48.658;2.328;2023-04-24T05:49:08;11.35;;;2.97;;
70549;SDS011;58101;48.658;2.328;2023-04-24T05:51:37;10.00;;;3.10;;
70549;SDS011;58101;48.658;2.328;2023-04-24T05:54:04;15.20;;;3.38;;
70549;SDS011;58101;48.658;2.328;2023-04-24T05:56:31;9.15;;;3.03;;
70549;SDS011;58101;48.658;2.328;2023-04-24T05:58:57;9.93;;;3.25;;
70549;SDS011;58101;48.658;2.328;2023-04-24T06:01:22;12.55;;;3.33;;
70549;SDS011;58101;48.658;2.328;2023-04-24T06:03:48;12.43;;;3.10;;
70549;SDS011;58101;48.658;2.328;2023-04-24T06:06:13;14.88;;;3.33;;
70549;SDS011;58101;48.658;2.328;2023-04-24T06:08:40;9.65;;;2.88;;
70549;SDS011;58101;48.658;2.328;2023-04-24T06:11:07;12.88;;;3.05;;
70549;SDS011;58101;48.658;2.328;2023-04-24T06:13:32;7.72;;;2.85;;
70549;SDS011;58101;48.658;2.328;2023-04-24T06:15:58;12.25;;;3.05;;
70549;SDS011;58101;48.658;2.328;2023-04-24T06:18:24;9.25;;;3.10;;
70549;SDS011;58101;48.658;2.328;2023-04-24T06:20:49;12.45;;;4.07;;
70549;SDS011;58101;48.658;2.328;2023-04-24T06:23:15;10.73;;;3.35;;
70549;SDS011;58101;48.658;2.328;2023-04-24T06:25:41;12.00;;;3.42;;
70549;SDS011;58101;48.658;2.328;2023-04-24T06:28:06;11.13;;;3.47;;
70549;SDS011;58101;48.658;2.328;2023-04-24T06:30:32;11.02;;;3.33;;
70549;SDS011;58101;48.658;2.328;2023-04-24T06:32:58;13.32;;;3.35;;
70549;SDS011;58101;48.658;2.328;2023-04-24T06:35:23;11.38;;;3.40;;
70549;SDS011;58101;48.658;2.328;2023-04-24T06:37:49;10.48;;;3.30;;
70549;SDS011;58101;48.658;2.328;2023-04-24T06:40:15;11.07;;;3.35;;
70549;SDS011;58101;48.658;2.328;2023-04-24T06:42:40;10.02;;;3.58;;
70549;SDS011;58101;48.658;2.328;2023-04-24T06:45:07;11.48;;;3.78;;
70549;SDS011;58101;48.658;2.328;2023-04-24T06:47:33;9.85;;;3.15;;
70549;SDS011;58101;48.658;2.328;2023-04-24T06:49:58;10.15;;;3.35;;
70549;SDS011;58101;48.658;2.328;2023-04-24T06:52:24;11.05;;;3.92;;
70549;SDS011;58101;48.658;2.328;2023-04-24T06:54:50;12.60;;;3.40;;
70549;SDS011;58101;48.658;2.328;2023-04-24T06:57:15;9.27;;;3.30;;
70549;SDS011;58101;48.658;2.328;2023-04-24T06:59:41;10.40;;;3.78;;
70549;SDS011;58101;48.658;2.328;2023-04-24T07:02:07;11.00;;;3.50;;
70549;SDS011;58101;48.658;2.328;2023-04-24T07:04:33;10.10;;;3.55;;
70549;SDS011;58101;48.658;2.328;2023-04-24T07:06:58;10.30;;;3.58;;
70549;SDS011;58101;48.658;2.328;2023-04-24T07:09:25;11.93;;;3.58;;
70549;SDS011;58101;48.658;2.328;2023-04-24T07:11:51;12.15;;;3.50;;
70549;SDS011;58101;48.658;2.328;2023-04-24T07:14:17;11.35;;;3.65;;
70549;SDS011;58101;48.658;2.328;2023-04-24T07:16:44;12.40;;;3.60;;
70549;SDS011;58101;48.658;2.328;2023-04-24T07:19:10;13.45;;;4.07;;
70549;SDS011;58101;48.658;2.328;2023-04-24T07:21:36;14.23;;;3.95;;
70549;SDS011;58101;48.658;2.328;2023-04-24T07:24:02;11.98;;;3.97;;
70549;SDS011;58101;48.658;2.328;2023-04-24T07:26:28;11.95;;;3.95;;
70549;SDS011;58101;48.658;2.328;2023-04-24T07:28:54;10.18;;;4.05;;
70549;SDS011;58101;48.658;2.328;2023-04-24T07:31:20;11.77;;;3.63;;
70549;SDS011;58101;48.658;2.328;2023-04-24T07:33:46;13.05;;;3.85;;
70549;SDS011;58101;48.658;2.328;2023-04-24T07:36:12;14.00;;;4.53;;
70549;SDS011;58101;48.658;2.328;2023-04-24T07:38:42;11.48;;;4.22;;
70549;SDS011;58101;48.658;2.328;2023-04-24T07:41:08;15.13;;;4.07;;
70549;SDS011;58101;48.658;2.328;2023-04-24T07:43:35;10.55;;;3.90;;
70549;SDS011;58101;48.658;2.328;2023-04-24T07:46:00;11.48;;;4.18;;
70549;SDS011;58101;48.658;2.328;2023-04-24T07:48:26;11.88;;;3.63;;
70549;SDS011;58101;48.658;2.328;2023-04-24T07:50:52;9.60;;;3.50;;
70549;SDS011;58101;48.658;2.328;2023-04-24T07:53:18;11.77;;;3.90;;
70549;SDS011;58101;48.658;2.328;2023-04-24T07:55:44;10.27;;;4.07;;
70549;SDS011;58101;48.658;2.328;2023-04-24T07:58:09;11.23;;;4.07;;
70549;SDS011;58101;48.658;2.328;2023-04-24T08:00:35;10.30;;;3.72;;
70549;SDS011;58101;48.658;2.328;2023-04-24T08:03:01;10.90;;;4.30;;
70549;SDS011;58101;48.658;2.328;2023-04-24T08:05:26;9.18;;;3.45;;
70549;SDS011;58101;48.658;2.328;2023-04-24T08:07:53;10.57;;;3.83;;
70549;SDS011;58101;48.658;2.328;2023-04-24T08:10:20;13.02;;;5.43;;
70549;SDS011;58101;48.658;2.328;2023-04-24T08:12:46;11.45;;;4.88;;
70549;SDS011;58101;48.658;2.328;2023-04-24T08:15:12;12.25;;;5.00;;
70549;SDS011;58101;48.658;2.328;2023-04-24T08:17:37;12.20;;;4.68;;
70549;SDS011;58101;48.658;2.328;2023-04-24T08:20:03;12.48;;;4.88;;
70549;SDS011;58101;48.658;2.328;2023-04-24T08:22:30;15.27;;;5.47;;
70549;SDS011;58101;48.658;2.328;2023-04-24T08:24:56;11.55;;;4.95;;
70549;SDS011;58101;48.658;2.328;2023-04-24T08:27:22;12.60;;;4.95;;
70549;SDS011;58101;48.658;2.328;2023-04-24T08:29:48;13.32;;;5.15;;
70549;SDS011;58101;48.658;2.328;2023-04-24T08:32:14;14.80;;;5.30;;
70549;SDS011;58101;48.658;2.328;2023-04-24T08:34:39;12.73;;;5.15;;
70549;SDS011;58101;48.658;2.328;2023-04-24T08:37:05;12.15;;;5.25;;
70549;SDS011;58101;48.658;2.328;2023-04-24T08:39:31;11.38;;;4.82;;
70549;SDS011;58101;48.658;2.328;2023-04-24T08:41:56;12.55;;;4.93;;
70549;SDS011;58101;48.658;2.328;2023-04-24T08:46:59;13.05;;;4.70;;
70549;SDS011;58101;48.658;2.328;2023-04-24T08:49:27;10.70;;;4.70;;
70549;SDS011;58101;48.658;2.328;2023-04-24T08:51:54;12.20;;;5.03;;
70549;SDS011;58101;48.658;2.328;2023-04-24T08:54:20;11.73;;;5.22;;
70549;SDS011;58101;48.658;2.328;2023-04-24T08:56:47;11.35;;;4.72;;
70549;SDS011;58101;48.658;2.328;2023-04-24T08:59:14;11.30;;;4.82;;
70549;SDS011;58101;48.658;2.328;2023-04-24T09:01:40;12.07;;;4.90;;
70549;SDS011;58101;48.658;2.328;2023-04-24T09:04:07;12.07;;;4.90;;
70549;SDS011;58101;48.658;2.328;2023-04-24T09:06:38;12.38;;;4.70;;
70549;SDS011;58101;48.658;2.328;2023-04-24T09:09:04;10.88;;;4.30;;
70549;SDS011;58101;48.658;2.328;2023-04-24T09:11:30;9.45;;;4.50;;
70549;SDS011;58101;48.658;2.328;2023-04-24T09:13:59;12.68;;;4.70;;
70549;SDS011;58101;48.658;2.328;2023-04-24T09:16:26;12.82;;;5.22;;
70549;SDS011;58101;48.658;2.328;2023-04-24T09:18:52;10.55;;;5.00;;
70549;SDS011;58101;48.658;2.328;2023-04-24T09:21:20;10.48;;;4.57;;
70549;SDS011;58101;48.658;2.328;2023-04-24T09:23:46;10.63;;;4.75;;
70549;SDS011;58101;48.658;2.328;2023-04-24T09:26:22;11.40;;;4.85;;
70549;SDS011;58101;48.658;2.328;2023-04-24T09:28:48;11.90;;;4.85;;
70549;SDS011;58101;48.658;2.328;2023-04-24T09:31:15;12.13;;;5.03;;
70549;SDS011;58101;48.658;2.328;2023-04-24T09:33:54;11.32;;;4.88;;
70549;SDS011;58101;48.658;2.328;2023-04-24T09:39:01;12.43;;;4.90;;
70549;SDS011;58101;48.658;2.328;2023-04-24T09:41:28;11.50;;;5.40;;
70549;SDS011;58101;48.658;2.328;2023-04-24T09:43:54;11.60;;;5.10;;
70549;SDS011;58101;48.658;2.328;2023-04-24T09:48:47;11.90;;;5.60;;
70549;SDS011;58101;48.658;2.328;2023-04-24T09:51:13;13.30;;;5.07;;
70549;SDS011;58101;48.658;2.328;2023-04-24T09:53:44;10.25;;;4.40;;
70549;SDS011;58101;48.658;2.328;2023-04-24T09:56:11;9.70;;;4.68;;
70549;SDS011;58101;48.658;2.328;2023-04-24T10:01:03;11.85;;;4.60;;
70549;SDS011;58101;48.658;2.328;2023-04-24T10:03:30;13.02;;;4.88;;
70549;SDS011;58101;48.658;2.328;2023-04-24T10:06:00;10.98;;;5.13;;
70549;SDS011;58101;48.658;2.328;2023-04-24T10:08:26;11.07;;;4.65;;
70549;SDS011;58101;48.658;2.328;2023-04-24T10:10:59;10.75;;;4.63;;
70549;SDS011;58101;48.658;2.328;2023-04-24T10:13:25;12.90;;;4.60;;
70549;SDS011;58101;48.658;2.328;2023-04-24T10:15:51;11.48;;;4.43;;
70549;SDS011;58101;48.658;2.328;2023-04-24T10:18:17;11.10;;;4.18;;
70549;SDS011;58101;48.658;2.328;2023-04-24T10:20:46;11.25;;;4.22;;
70549;SDS011;58101;48.658;2.328;2023-04-24T10:23:11;8.70;;;4.32;;
70549;SDS011;58101;48.658;2.328;2023-04-24T10:25:37;12.13;;;4.70;;
70549;SDS011;58101;48.658;2.328;2023-04-24T10:28:04;12.75;;;4.47;;
70549;SDS011;58101;48.658;2.328;2023-04-24T10:30:31;10.52;;;4.05;;
70549;SDS011;58101;48.658;2.328;2023-04-24T10:33:02;12.93;;;4.35;;
70549;SDS011;58101;48.658;2.328;2023-04-24T10:35:34;9.13;;;4.15;;
70549;SDS011;58101;48.658;2.328;2023-04-24T10:38:11;9.60;;;4.25;;
70549;SDS011;58101;48.658;2.328;2023-04-24T10:40:39;8.13;;;3.65;;
70549;SDS011;58101;48.658;2.328;2023-04-24T10:43:05;9.45;;;4.15;;
70549;SDS011;58101;48.658;2.328;2023-04-24T10:45:34;11.70;;;4.53;;
70549;SDS011;58101;48.658;2.328;2023-04-24T10:48:03;12.10;;;4.20;;
70549;SDS011;58101;48.658;2.328;2023-04-24T10:53:19;10.95;;;3.92;;
70549;SDS011;58101;48.658;2.328;2023-04-24T10:56:03;10.77;;;4.20;;
70549;SDS011;58101;48.658;2.328;2023-04-24T10:58:37;11.90;;;4.15;;
70549;SDS011;58101;48.658;2.328;2023-04-24T11:04:21;10.88;;;4.10;;
70549;SDS011;58101;48.658;2.328;2023-04-24T11:06:57;7.88;;;3.22;;
70549;SDS011;58101;48.658;2.328;2023-04-24T11:09:26;9.52;;;3.28;;
70549;SDS011;58101;48.658;2.328;2023-04-24T11:12:02;10.25;;;3.60;;
70549;SDS011;58101;48.658;2.328;2023-04-24T11:17:37;7.63;;;3.00;;
70549;SDS011;58101;48.658;2.328;2023-04-24T11:20:08;7.55;;;2.90;;
70549;SDS011;58101;48.658;2.328;2023-04-24T11:22:41;9.65;;;3.00;;
70549;SDS011;58101;48.658;2.328;2023-04-24T11:25:07;8.45;;;3.20;;
70549;SDS011;58101;48.658;2.328;2023-04-24T11:27:40;10.85;;;4.60;;
70549;SDS011;58101;48.658;2.328;2023-04-24T11:30:07;9.65;;;3.50;;
70549;SDS011;58101;48.658;2.328;2023-04-24T11:35:03;7.82;;;3.20;;
70549;SDS011;58101;48.658;2.328;2023-04-24T11:37:41;10.40;;;3.33;;
70549;SDS011;58101;48.658;2.328;2023-04-24T11:40:12;8.80;;;3.15;;
70549;SDS011;58101;48.658;2.328;2023-04-24T11:42:51;11.52;;;3.30;;
70549;SDS011;58101;48.658;2.328;2023-04-24T11:45:20;9.25;;;3.15;;
70549;SDS011;58101;48.658;2.328;2023-04-24T11:47:50;9.35;;;3.15;;
70549;SDS011;58101;48.658;2.328;2023-04-24T11:50:17;8.32;;;2.90;;
70549;SDS011;58101;48.658;2.328;2023-04-24T11:52:44;7.35;;;2.83;;
70549;SDS011;58101;48.658;2.328;2023-04-24T11:57:43;8.68;;;2.60;;
70549;SDS011;58101;48.658;2.328;2023-04-24T12:00:20;7.22;;;2.50;;
70549;SDS011;58101;48.658;2.328;2023-04-24T12:02:47;8.77;;;3.00;;
70549;SDS011;58101;48.658;2.328;2023-04-24T12:05:24;8.07;;;2.97;;
70549;SDS011;58101;48.658;2.328;2023-04-24T12:07:52;7.15;;;2.40;;
70549;SDS011;58101;48.658;2.328;2023-04-24T12:10:25;7.30;;;2.42;;
70549;SDS011;58101;48.658;2.328;2023-04-24T12:12:52;7.22;;;2.45;;
70549;SDS011;58101;48.658;2.328;2023-04-24T12:15:20;7.00;;;2.40;;
70549;SDS011;58101;48.658;2.328;2023-04-24T12:17:46;6.70;;;2.53;;
70549;SDS011;58101;48.658;2.328;2023-04-24T12:20:12;6.60;;;2.40;;
70549;SDS011;58101;48.658;2.328;2023-04-24T12:22:49;9.57;;;2.90;;
70549;SDS011;58101;48.658;2.328;2023-04-24T12:25:24;7.22;;;2.45;;
70549;SDS011;58101;48.658;2.328;2023-04-24T12:27:55;8.70;;;2.70;;
70549;SDS011;58101;48.658;2.328;2023-04-24T12:30:41;8.35;;;2.67;;
70549;SDS011;58101;48.658;2.328;2023-04-24T12:33:16;8.25;;;2.45;;
70549;SDS011;58101;48.658;2.328;2023-04-24T12:35:46;7.32;;;2.53;;
70549;SDS011;58101;48.658;2.328;2023-04-24T12:38:13;7.70;;;2.53;;
70549;SDS011;58101;48.658;2.328;2023-04-24T12:40:40;7.03;;;2.53;;
70549;SDS011;58101;48.658;2.328;2023-04-24T12:43:19;6.90;;;2.45;;
70549;SDS011;58101;48.658;2.328;2023-04-24T12:45:45;9.38;;;2.50;;
70549;SDS011;58101;48.658;2.328;2023-04-24T12:48:12;8.60;;;2.20;;
70549;SDS011;58101;48.658;2.328;2023-04-24T12:50:41;7.72;;;2.50;;
70549;SDS011;58101;48.658;2.328;2023-04-24T12:53:08;8.65;;;2.08;;
70549;SDS011;58101;48.658;2.328;2023-04-24T12:55:36;6.07;;;2.00;;
70549;SDS011;58101;48.658;2.328;2023-04-24T12:58:02;7.05;;;2.10;;
70549;SDS011;58101;48.658;2.328;2023-04-24T13:00:28;8.65;;;2.13;;
70549;SDS011;58101;48.658;2.328;2023-04-24T13:02:54;6.45;;;2.00;;
70549;SDS011;58101;48.658;2.328;2023-04-24T13:05:19;5.65;;;1.73;;
70549;SDS011;58101;48.658;2.328;2023-04-24T13:07:45;6.35;;;1.85;;
70549;SDS011;58101;48.658;2.328;2023-04-24T13:10:11;7.50;;;1.90;;
70549;SDS011;58101;48.658;2.328;2023-04-24T13:17:29;6.07;;;1.92;;
70549;SDS011;58101;48.658;2.328;2023-04-24T13:19:55;7.72;;;2.13;;
70549;SDS011;58101;48.658;2.328;2023-04-24T13:22:21;7.20;;;1.90;;
70549;SDS011;58101;48.658;2.328;2023-04-24T13:24:46;10.02;;;1.83;;
70549;SDS011;58101;48.658;2.328;2023-04-24T13:27:15;7.60;;;1.90;;
70549;SDS011;58101;48.658;2.328;2023-04-24T13:29:41;5.95;;;1.80;;
70549;SDS011;58101;48.658;2.328;2023-04-24T13:32:08;7.15;;;2.00;;
70549;SDS011;58101;48.658;2.328;2023-04-24T13:34:34;5.72;;;1.73;;
70549;SDS011;58101;48.658;2.328;2023-04-24T13:37:00;6.32;;;2.00;;
70549;SDS011;58101;48.658;2.328;2023-04-24T13:39:26;7.63;;;1.92;;
70549;SDS011;58101;48.658;2.328;2023-04-24T13:41:52;7.00;;;2.22;;
70549;SDS011;58101;48.658;2.328;2023-04-24T13:44:20;7.75;;;2.00;;
70549;SDS011;58101;48.658;2.328;2023-04-24T13:46:47;9.80;;;2.30;;
70549;SDS011;58101;48.658;2.328;2023-04-24T13:49:15;10.65;;;1.98;;
70549;SDS011;58101;48.658;2.328;2023-04-24T13:51:41;19.58;;;2.83;;
70549;SDS011;58101;48.658;2.328;2023-04-24T13:54:07;47.90;;;4.40;;
70549;SDS011;58101;48.658;2.328;2023-04-24T13:56:33;6.70;;;1.80;;
70549;SDS011;58101;48.658;2.328;2023-04-24T13:58:58;5.75;;;1.80;;
70549;SDS011;58101;48.658;2.328;2023-04-24T14:01:25;5.88;;;1.83;;
70549;SDS011;58101;48.658;2.328;2023-04-24T14:03:54;5.50;;;1.80;;
70549;SDS011;58101;48.658;2.328;2023-04-24T14:06:20;7.65;;;1.90;;
70549;SDS011;58101;48.658;2.328;2023-04-24T14:08:47;6.03;;;1.60;;
70549;SDS011;58101;48.658;2.328;2023-04-24T14:11:13;5.90;;;1.77;;
70549;SDS011;58101;48.658;2.328;2023-04-24T14:13:43;6.03;;;1.60;;
70549;SDS011;58101;48.658;2.328;2023-04-24T14:16:09;6.78;;;1.60;;
70549;SDS011;58101;48.658;2.328;2023-04-24T14:18:35;7.43;;;1.80;;
70549;SDS011;58101;48.658;2.328;2023-04-24T14:21:04;6.47;;;1.80;;
70549;SDS011;58101;48.658;2.328;2023-04-24T14:23:30;5.88;;;1.80;;
70549;SDS011;58101;48.658;2.328;2023-04-24T14:25:59;4.95;;;1.65;;
70549;SDS011;58101;48.658;2.328;2023-04-24T14:28:25;6.22;;;1.77;;
70549;SDS011;58101;48.658;2.328;2023-04-24T14:30:51;7.00;;;1.80;;
70549;SDS011;58101;48.658;2.328;2023-04-24T14:33:17;5.35;;;1.63;;
70549;SDS011;58101;48.658;2.328;2023-04-24T14:35:43;6.50;;;1.65;;
70549;SDS011;58101;48.658;2.328;2023-04-24T14:38:09;5.78;;;1.92;;
70549;SDS011;58101;48.658;2.328;2023-04-24T14:40:35;6.25;;;1.80;;
70549;SDS011;58101;48.658;2.328;2023-04-24T14:43:00;5.80;;;1.90;;
70549;SDS011;58101;48.658;2.328;2023-04-24T14:45:26;5.63;;;2.10;;
70549;SDS011;58101;48.658;2.328;2023-04-24T14:47:52;8.88;;;1.75;;
70549;SDS011;58101;48.658;2.328;2023-04-24T14:50:18;6.18;;;2.13;;
70549;SDS011;58101;48.658;2.328;2023-04-24T14:52:44;8.00;;;1.80;;
70549;SDS011;58101;48.658;2.328;2023-04-24T14:55:11;7.88;;;2.50;;
70549;SDS011;58101;48.658;2.328;2023-04-24T14:57:37;6.80;;;1.95;;
70549;SDS011;58101;48.658;2.328;2023-04-24T15:00:03;8.23;;;2.88;;
70549;SDS011;58101;48.658;2.328;2023-04-24T15:02:35;7.55;;;2.10;;
70549;SDS011;58101;48.658;2.328;2023-04-24T15:05:04;9.18;;;2.72;;
70549;SDS011;58101;48.658;2.328;2023-04-24T15:09:56;8.85;;;2.50;;